チューク諸島 の空港の天気 - METARとTAF

チューク国際空港 ( PTKK / TKK ) - ミクロネシア連邦 チューク諸島
飛行場実況気象(Metar)
観測時間05/28 10:51 +10 (05/28 00:51 UTC)
風向・風速北 3m/s
視程10km以上
天気現象
少しの雲 雲底高度 430m
全天の4割程度の雲 雲底高度 3660m
全天の8割程度の雲 雲底高度 8530m
気温31℃
湿度77%
気圧1012.3hPa
METARPTKK 280051Z VRB06KT 15SM FEW014 SCT120 BKN280 31/27 A2989 RMK SLP123 T03100266
過去の天気等 Google飛行場航空写真 Wunderground天気予報

過去48時間のMETAR

飛行場予報(TAF)
発表時間: 5/28 09:20 +10 (5/27 23:20 UTC)
予報対象時間: 28日10時 +10 ~ 29日10時 +10
風向・風速不定 3m/s
視程10km以上
少しの雲 雲底高度 550m
全天の4割程度の雲 雲底高度 3660m
28日12時 +10 から
風向・風速北東 4m/s
視程10km以上
少しの雲 雲底高度 550m
全天の4割程度の雲 雲底高度 3660m
28日22時 +10 から
風向・風速北東 6m/s
視程10km以上
天気現象周辺でしゅう雨
少しの雲 雲底高度 550m
全天の4割程度の雲 雲底高度 1520m
全天の8割程度の雲 雲底高度 3660m
PTKK 272320Z 2800/2824 VRB06KT P6SM FEW018 SCT120
FM280200 04008KT P6SM FEW018 SCT120
FM281200 04011KT P6SM VCSH FEW018 SCT050 BKN120